KSFO/SFO METAR and TAF weather

Enter ICAO airport designator
Station Type Date Time Source
KSFO METAR 2020/11/27 13:56 UTC NOAA

KSFO 271356Z 00000KT 10SM CLR 06/M02 A3022 RMK AO2 SLP232 T00611022


Station Type Date Time Source
KSFO Decoded METAR 2020/11/27 13:56 UTC NOAA

SAN FRANCISCO INTERNATIONAL AIRPORT , CA, United States (KSFO) 37-37N 122-22W 26M
Nov 27, 2020 - 08:56 AM EST / 2020.11.27 1356 UTC
Wind: Calm:0
Visibility: 10 mile(s):0
Sky conditions: clear
Temperature: 43.0 F (6.1 C)
Dew Point: 28.0 F (-2.2 C)
Relative Humidity: 55%
Pressure (altimeter): 30.22 in. Hg (1023 hPa)
ob: KSFO 271356Z 00000KT 10SM CLR 06/M02 A3022 RMK AO2 SLP232 T00611022
cycle: 14

Station Type Date Time Source
KSFO TAF 2020/11/27 12:22 UTC NOAA

TAF KSFO 271120Z 2712/2818 VRB03KT P6SM SKC
FM271400 11004KT P6SM SKC
FM280200 VRB04KT P6SM SKC
FM281400 08004KT P6SM SKC

Example: see airport list